Indian Hill, Ohio
Current Conditions -  °F | °C
As of 6:53 AM on Monday 22 Dec 2014 (Local Time) from KLUK Reporting Station
Overcast Overcast  
Wind Chill: 30°   Ceiling: 5500
Heat Index: 30°   Visibility: 10mi
Dew Point: 29°   Wind: 0mph
Humidity: 96%   Direction: NA
Pressure: 30.05"   Gusts: NA
Location:  39.1838°N, 84.3411°W
Report Text: KLUK 221153Z 00000KT 10SM OVC055 M01/M02 A3005 RMK AO2 SLP181 T10111017 11011 21067 55006
Loading
Personal Weather Stations






























Interactive Weather Map New forecast layout! Learn more

10-Day Weather Forecast

Advertisements
Track Severe Weather on mobile